AirNav   Everest Fuels
 
 736 users online  

2UT2 High Meadow Ranch Airport
Duck Creek Village, Utah, USA

GOING TO DUCK CREEK VILLAGE?


FAA INFORMATION EFFECTIVE 11 AUGUST 2022

Location

FAA Identifier: 2UT2
Lat/Long: 37-31-42.3350N 112-39-39.1900W
37-31.705583N 112-39.653167W
37.5284264,-112.6608861
(estimated)
Elevation: 8280 ft. / 2524 m
Variation: 13E (2000)
From city: 1 mile N of DUCK CREEK VILLAGE, UT
Time zone: UTC -6 (UTC -7 during Standard Time)
Zip code: 84710

Airport Operations

Airport use: Private use. Permission required prior to landing
Activation date: 02/2002
Control tower: no
ARTCC: SALT LAKE CITY CENTER
FSS: CEDAR CITY FLIGHT SERVICE STATION
Attendance: UNATNDD
Wind indicator: yes
Segmented circle: no

Airport Communications

CTAF/UNICOM: 122.8

Nearby radio navigation aids

VOR radial/distance  VOR name  Freq  Var
BCEr225/19.5BRYCE CANYON VORTAC112.8015E
EHKr113/24.8ENOCH VOR/DME117.3016E

 
NDB name  Hdg/Dist  Freq  Var  ID
COLORADO CITY013/37.940313EAZC .- --.. -.-.

Airport Services

Runway Information

Runway 8/26

Dimensions: 2071 x 40 ft. / 631 x 12 m
Surface: turf
RUNWAY 8  RUNWAY 26
Latitude: 37-31.654167N37-31.757000N
Longitude: 112-39.857500W112-39.448833W
Elevation: 8280.0 ft.8280.0 ft.
Traffic pattern: leftleft
Obstructions: 80 ft. trees, 500 ft. from runwaynone

Airport Ownership and Management from official FAA records

Ownership: Privately-owned
Owner: GARY RAYMOND HALVERSON
1696 REDROCK
LAS VEGAS, NV 89146
Phone 702-876-5444
Manager: GARY RAYMOND HALVERSON
1696 REDROCK
LAS VEGAS, NV 89146
Phone 702-876-5444

Additional Remarks

FOR CD CTC SALT LAKE ARTCC AT 801-320-2568.

Instrument Procedures

There are no published instrument procedures at 2UT2.

Some nearby airports with instrument procedures:

U55 - Panguitch Municipal Airport (23 nm NE)
KCDC - Cedar City Regional Airport (23 nm NW)
KBCE - Bryce Canyon Airport (27 nm NE)
KKNB - Kanab Municipal Airport (32 nm S)
KAZC - Colorado City Municipal Airport (38 nm SW)
 
Loc | Ops | Rwys | IFR | FBO | Links
Com | Nav | Svcs | Stats | Notes
Area around 2UT2 (High Meadow Ranch Airport)
 
Road maps at: MapQuest Bing Google
 
Aerial photo
No photo
 
Sectional chart

 
Airport distance calculator
Flying to High Meadow Ranch Airport? Find the distance to fly.

From to 2UT2

Sunrise and sunset
Times for 16-Aug-2022
 Local
(UTC-6)
 Zulu
(UTC)
Morning civil twilight06:2112:21
Sunrise06:4812:48
Sunset20:2102:21
Evening civil twilight20:4902:49

Current date and time
Zulu (UTC)  17-Aug-2022 05:18:21
Local (UTC-6)  16-Aug-2022 23:18:21
 
METAR
KU55 
23nm NE 
170455Z AUTO 16003KT 10SM OVC100 17/15 A3029 RMK A01
KCDC 
23nm NW 
170453Z AUTO 13006KT 10SM OVC110 20/14 A3017 RMK AO2 SLP136 T02000139
KBCE 
26nm NE 
170453Z AUTO 00000KT 10SM SCT085 15/12 A3033 RMK AO2 RAE0358 SLP155 P0000 T01500122
KKNB 
32nm S 
170455Z AUTO 01005KT 10SM CLR 22/16 A3016 RMK A01
KAZC 
38nm SW 
170455Z AUTO 00000KT 10SM CLR 21/18 A3014 RMK AO2
TAF
KCDC 
23nm NW 
161911Z 1619/1718 14008KT P6SM VCTS FEW080CB BKN100 FM170000 10008KT P6SM VCSH FEW060 BKN100 FM170400 15005KT P6SM SCT080 BKN100
KBCE 
26nm NE 
162253Z 1623/1718 10008KT P6SM SHRA SCT060 OVC080 FM170100 VRB05KT P6SM VCSH SCT080 BKN100 FM170300 VRB05KT P6SM SCT080 OVC100 FM171600 14008KT P6SM SCT080 BKN100
NOTAMs
Click for the latest NOTAMs
NOTAMs are issued by the DoD/FAA and will open in a separate window not controlled by AirNav.

 

 
 

Would you like to see your business listed on this page?

 If your business provides an interesting product or service to pilots, flight crews, aircraft, or users of the High Meadow Ranch Airport, you should consider listing it here.  To start the listing process, click on the button below
 
Add a business
 

Other Pages about High Meadow Ranch Airport

Update a link
 
Copyright © AirNav, LLC. All rights reserved. Privacy Policy  Contact